Time;durP1;ratioP1;P1;durP2;ratioP2;P2;SDS_P1;SDS_P2;PMS_P1;PMS_P2;Temp;Humidity;BMP_temperature;BMP_pressure;BME280_temperature;BME280_humidity;BME280_pressure;Samples;Min_cycle;Max_cycle;Signal;HPM_P1;HPM_P2
2023/02/15 00:00:21;;;;;;;20.15;9.25;;;;;;;;;;5046684;28;20028;-73
2023/02/15 00:02:48;;;;;;;22.17;9.63;;;;;;;;;;5035670;28;20935;-73
2023/02/15 00:05:14;;;;;;;21.05;9.02;;;;;;;;;;5034621;28;20083;-74
2023/02/15 00:07:40;;;;;;;20.63;8.63;;;;;;;;;;5044452;28;20647;-73
2023/02/15 00:10:06;;;;;;;16.67;7.93;;;;;;;;;;5048346;28;20041;-73
2023/02/15 00:12:32;;;;;;;18.42;8.40;;;;;;;;;;5036010;28;20773;-73
2023/02/15 00:14:58;;;;;;;17.70;8.40;;;;;;;;;;5037710;28;20083;-73
2023/02/15 00:17:24;;;;;;;18.23;7.68;;;;;;;;;;5040968;28;20064;-73
2023/02/15 00:19:50;;;;;;;18.85;9.80;;;;;;;;;;5043929;28;20036;-73
2023/02/15 00:22:16;;;;;;;24.85;10.48;;;;;;;;;;5040360;28;20029;-74
2023/02/15 00:24:42;;;;;;;19.38;10.02;;;;;;;;;;5042176;28;20037;-73
2023/02/15 00:27:09;;;;;;;19.20;8.93;;;;;;;;;;5044315;28;20063;-73
2023/02/15 00:29:34;;;;;;;16.58;8.13;;;;;;;;;;5035292;28;20037;-73
2023/02/15 00:32:00;;;;;;;16.73;8.50;;;;;;;;;;5041902;28;20033;-73
2023/02/15 00:34:27;;;;;;;20.17;8.95;;;;;;;;;;5043398;28;20104;-73
2023/02/15 00:36:54;;;;;;;17.52;8.55;;;;;;;;;;5042434;28;20061;-74
2023/02/15 00:39:20;;;;;;;19.50;8.32;;;;;;;;;;5045984;28;20045;-73
2023/02/15 00:41:46;;;;;;;17.50;9.23;;;;;;;;;;5042920;28;20045;-73
2023/02/15 00:44:13;;;;;;;15.63;7.20;;;;;;;;;;5041366;28;20041;-74
2023/02/15 00:46:39;;;;;;;16.20;7.85;;;;;;;;;;5039686;28;20103;-73
2023/02/15 00:49:05;;;;;;;12.50;6.55;;;;;;;;;;5040852;28;20025;-73
2023/02/15 00:51:32;;;;;;;17.63;7.57;;;;;;;;;;5043499;28;20035;-74
2023/02/15 00:53:57;;;;;;;16.38;7.07;;;;;;;;;;5043975;28;20029;-73
2023/02/15 00:56:23;;;;;;;15.05;7.22;;;;;;;;;;5040212;28;20087;-73
2023/02/15 00:58:49;;;;;;;15.48;7.93;;;;;;;;;;5037703;28;20528;-74
2023/02/15 01:01:17;;;;;;;14.55;7.05;;;;;;;;;;5035909;28;20033;-73
2023/02/15 01:03:43;;;;;;;12.27;6.22;;;;;;;;;;5077574;22;20879;-73
2023/02/15 01:06:10;;;;;;;13.10;6.72;;;;;;;;;;5059477;28;20067;-73
2023/02/15 01:08:36;;;;;;;13.98;6.85;;;;;;;;;;5052597;28;20064;-73
2023/02/15 01:11:06;;;;;;;12.43;6.40;;;;;;;;;;5060665;28;20048;-73
2023/02/15 01:13:32;;;;;;;16.02;7.22;;;;;;;;;;5058554;28;20446;-74
2023/02/15 01:15:58;;;;;;;16.52;7.82;;;;;;;;;;5063301;28;20108;-73
2023/02/15 01:18:24;;;;;;;20.60;7.30;;;;;;;;;;5055796;28;20628;-73
2023/02/15 01:20:50;;;;;;;15.25;7.93;;;;;;;;;;5055518;28;20024;-73
2023/02/15 01:23:16;;;;;;;16.52;7.80;;;;;;;;;;5059263;28;20086;-73
2023/02/15 01:25:42;;;;;;;14.57;7.88;;;;;;;;;;5067091;28;20029;-73
2023/02/15 01:28:08;;;;;;;16.85;9.07;;;;;;;;;;5065467;28;20107;-73
2023/02/15 01:30:34;;;;;;;19.00;8.65;;;;;;;;;;5063086;28;20139;-73
2023/02/15 01:33:00;;;;;;;16.23;7.95;;;;;;;;;;5062294;28;20033;-73
2023/02/15 01:35:27;;;;;;;17.67;8.48;;;;;;;;;;5052577;28;20026;-73
2023/02/15 01:37:54;;;;;;;17.40;8.65;;;;;;;;;;5055393;28;20082;-73
2023/02/15 01:40:20;;;;;;;19.52;8.60;;;;;;;;;;5059303;28;20226;-73
2023/02/15 01:42:46;;;;;;;20.92;7.95;;;;;;;;;;5066827;28;20933;-73
2023/02/15 01:45:15;;;;;;;18.75;8.80;;;;;;;;;;5059693;28;20028;-73
2023/02/15 01:47:46;;;;;;;23.08;8.20;;;;;;;;;;5059062;28;20032;-73
2023/02/15 01:50:11;;;;;;;18.35;7.82;;;;;;;;;;5064955;28;20024;-73
2023/02/15 01:52:40;;;;;;;17.85;8.43;;;;;;;;;;5065979;28;20038;-73
2023/02/15 01:55:07;;;;;;;19.77;8.05;;;;;;;;;;5063439;28;20036;-73
2023/02/15 01:57:33;;;;;;;17.83;7.68;;;;;;;;;;5064414;28;20036;-73
2023/02/15 02:00:01;;;;;;;17.88;7.40;;;;;;;;;;5061804;28;20029;-73
2023/02/15 02:02:28;;;;;;;15.18;6.68;;;;;;;;;;5062217;28;20168;-73
2023/02/15 02:04:57;;;;;;;16.95;7.20;;;;;;;;;;5059157;28;20485;-73
2023/02/15 02:07:27;;;;;;;15.80;6.88;;;;;;;;;;5062395;28;20071;-73
2023/02/15 02:09:53;;;;;;;17.65;6.72;;;;;;;;;;5067762;28;20031;-73
2023/02/15 02:12:19;;;;;;;16.33;7.47;;;;;;;;;;5063188;28;20040;-73
2023/02/15 02:14:46;;;;;;;18.65;8.00;;;;;;;;;;5069016;28;20044;-73
2023/02/15 02:17:22;;;;;;;21.42;8.30;;;;;;;;;;5065852;28;20040;-73
2023/02/15 02:20:06;;;;;;;16.88;7.30;;;;;;;;;;5067429;28;20033;-73
2023/02/15 02:22:45;;;;;;;19.88;7.35;;;;;;;;;;5050140;28;20083;-73
2023/02/15 02:25:38;;;;;;;17.38;8.50;;;;;;;;;;5065605;28;20351;-73
2023/02/15 02:28:10;;;;;;;19.35;7.82;;;;;;;;;;5063438;28;20036;-73
2023/02/15 02:30:45;;;;;;;17.85;7.32;;;;;;;;;;5060150;28;20040;-73
2023/02/15 02:33:14;;;;;;;15.32;8.10;;;;;;;;;;5063180;28;20032;-73
2023/02/15 02:35:49;;;;;;;15.73;7.30;;;;;;;;;;5059241;28;20033;-73
2023/02/15 02:38:15;;;;;;;19.98;7.68;;;;;;;;;;5066669;28;20040;-73
2023/02/15 02:41:13;;;;;;;19.73;8.48;;;;;;;;;;5066977;28;20029;-73
2023/02/15 02:43:42;;;;;;;14.73;6.88;;;;;;;;;;5011429;28;20382;-73
2023/02/15 02:46:20;;;;;;;19.08;7.97;;;;;;;;;;5065814;28;20044;-73
2023/02/15 02:48:47;;;;;;;15.75;7.00;;;;;;;;;;5061055;28;20025;-73
2023/02/15 02:51:20;;;;;;;13.70;6.85;;;;;;;;;;5063390;28;20108;-73
2023/02/15 02:53:45;;;;;;;;;;;;;;;;;;5055010;28;20025;-73
2023/02/15 02:56:44;;;;;;;12.90;6.47;;;;;;;;;;5065094;28;19904;-73
2023/02/15 02:59:12;;;;;;;13.95;6.90;;;;;;;;;;5007263;28;20047;-73
2023/02/15 03:01:41;;;;;;;16.80;6.70;;;;;;;;;;5066270;28;20485;-74
2023/02/15 03:04:10;;;;;;;17.15;7.28;;;;;;;;;;5060091;28;20397;-74
2023/02/15 03:06:36;;;;;;;14.90;6.80;;;;;;;;;;5063561;28;20032;-73
2023/02/15 03:09:07;;;;;;;13.60;7.13;;;;;;;;;;5056161;28;20458;-73
2023/02/15 03:11:33;;;;;;;14.85;5.97;;;;;;;;;;5059538;28;20029;-73
2023/02/15 03:13:59;;;;;;;14.20;6.60;;;;;;;;;;5059035;28;20021;-73
2023/02/15 03:16:26;;;;;;;14.07;6.60;;;;;;;;;;5062269;28;20123;-73
2023/02/15 03:18:58;;;;;;;12.60;6.03;;;;;;;;;;5067984;28;20029;-73
2023/02/15 03:21:39;;;;;;;16.73;7.13;;;;;;;;;;5064589;28;20078;-73
2023/02/15 03:24:09;;;;;;;18.42;8.18;;;;;;;;;;5056069;28;20112;-73
2023/02/15 03:26:36;;;;;;;13.38;6.13;;;;;;;;;;5064097;28;20037;-73
2023/02/15 03:29:04;;;;;;;17.13;7.20;;;;;;;;;;5064384;28;20024;-73
2023/02/15 03:31:32;;;;;;;13.73;6.40;;;;;;;;;;5060162;28;20840;-73
2023/02/15 03:34:02;;;;;;;17.75;6.68;;;;;;;;;;5063089;28;20036;-73
2023/02/15 03:36:37;;;;;;;17.00;7.40;;;;;;;;;;5056667;28;20036;-73
2023/02/15 03:39:10;;;;;;;14.82;5.95;;;;;;;;;;5068872;28;20032;-73
2023/02/15 03:41:39;;;;;;;17.00;6.97;;;;;;;;;;5064277;28;20032;-73
2023/02/15 03:44:07;;;;;;;14.38;6.97;;;;;;;;;;5065598;28;20067;-73
2023/02/15 03:46:35;;;;;;;17.00;6.70;;;;;;;;;;5061871;28;20041;-73
2023/02/15 03:49:04;;;;;;;17.25;8.70;;;;;;;;;;5065457;28;20024;-73
2023/02/15 03:51:38;;;;;;;17.80;7.55;;;;;;;;;;5062407;28;20032;-73
2023/02/15 03:54:08;;;;;;;14.93;7.65;;;;;;;;;;5062810;28;20031;-73
2023/02/15 03:56:35;;;;;;;16.15;6.57;;;;;;;;;;5061741;28;20416;-73
2023/02/15 04:01:58;;;;;;;15.70;6.82;;;;;;;;;;5065185;28;20066;-73
2023/02/15 04:04:24;;;;;;;14.75;6.78;;;;;;;;;;5018395;28;20079;-73
2023/02/15 04:06:50;;;;;;;17.25;7.20;;;;;;;;;;5023484;28;20042;-73
2023/02/15 04:12:01;;;;;;;16.27;7.63;;;;;;;;;;5027319;28;20399;-73
2023/02/15 04:17:12;;;;;;;13.40;5.72;;;;;;;;;;5022467;28;20505;-73
2023/02/15 04:25:13;;;;;;;12.55;7.38;;;;;;;;;;5011452;28;20053;-73
2023/02/15 04:27:43;;;;;;;15.85;6.35;;;;;;;;;;5028091;28;20874;-73
2023/02/15 04:30:09;;;;;;;15.00;6.45;;;;;;;;;;5023486;28;20060;-73
2023/02/15 04:32:36;;;;;;;14.57;6.53;;;;;;;;;;5021182;28;20041;-73
2023/02/15 04:35:02;;;;;;;19.80;9.52;;;;;;;;;;5014136;28;20025;-73
2023/02/15 04:37:28;;;;;;;16.95;7.88;;;;;;;;;;5019913;28;20040;-74
2023/02/15 04:39:54;;;;;;;17.42;7.03;;;;;;;;;;5023477;28;20037;-73
2023/02/15 04:42:20;;;;;;;14.27;7.43;;;;;;;;;;5026041;28;20057;-73
2023/02/15 04:44:46;;;;;;;17.75;7.88;;;;;;;;;;5022626;28;20858;-74
2023/02/15 04:47:12;;;;;;;18.77;8.43;;;;;;;;;;5023747;28;20045;-73
2023/02/15 04:49:38;;;;;;;28.50;11.35;;;;;;;;;;5022540;28;20037;-73
2023/02/15 04:52:04;;;;;;;29.45;12.43;;;;;;;;;;5015035;28;20080;-73
2023/02/15 04:54:30;;;;;;;28.67;11.88;;;;;;;;;;5024972;28;20033;-73
2023/02/15 04:56:56;;;;;;;24.83;11.23;;;;;;;;;;5024939;28;20040;-73
2023/02/15 04:59:22;;;;;;;20.58;9.95;;;;;;;;;;5019309;28;20087;-73
2023/02/15 05:01:48;;;;;;;24.58;10.48;;;;;;;;;;5025508;28;20033;-73
2023/02/15 05:04:14;;;;;;;19.42;9.68;;;;;;;;;;5057683;28;20032;-73
2023/02/15 05:06:40;;;;;;;19.98;9.73;;;;;;;;;;5055294;28;20064;-73
2023/02/15 05:09:06;;;;;;;20.40;9.30;;;;;;;;;;5064946;28;20028;-73
2023/02/15 05:11:32;;;;;;;19.75;9.35;;;;;;;;;;5064550;28;20033;-73
2023/02/15 05:13:58;;;;;;;21.15;9.15;;;;;;;;;;5057021;28;20032;-74
2023/02/15 05:16:25;;;;;;;17.98;9.27;;;;;;;;;;5066528;28;20039;-73
2023/02/15 05:18:51;;;;;;;17.70;9.27;;;;;;;;;;5060081;28;20060;-73
2023/02/15 05:21:17;;;;;;;22.35;10.43;;;;;;;;;;5058435;28;20113;-73
2023/02/15 05:23:43;;;;;;;18.88;8.02;;;;;;;;;;5061769;28;20031;-73
2023/02/15 05:28:56;;;;;;;17.63;8.25;;;;;;;;;;5058442;28;20137;-73
2023/02/15 05:31:22;;;;;;;19.70;9.45;;;;;;;;;;5059291;28;20048;-73
2023/02/15 05:33:48;;;;;;;21.60;9.75;;;;;;;;;;5065068;28;20065;-73
2023/02/15 05:36:14;;;;;;;21.75;9.18;;;;;;;;;;5065221;28;20025;-73
2023/02/15 05:38:40;;;;;;;20.63;10.15;;;;;;;;;;5062921;28;20123;-73
2023/02/15 05:41:07;;;;;;;22.27;10.25;;;;;;;;;;5055788;28;20123;-73
2023/02/15 05:43:33;;;;;;;24.25;11.55;;;;;;;;;;5061396;28;20086;-73
2023/02/15 05:46:00;;;;;;;34.53;14.60;;;;;;;;;;5064766;28;20036;-73
2023/02/15 05:48:26;;;;;;;44.28;22.92;;;;;;;;;;5058620;28;20071;-73
2023/02/15 05:51:02;;;;;;;49.05;23.02;;;;;;;;;;5058743;28;20031;-73
2023/02/15 05:53:29;;;;;;;37.72;18.10;;;;;;;;;;5063469;28;20028;-73
2023/02/15 05:55:58;;;;;;;32.30;16.20;;;;;;;;;;5059013;28;20032;-73
2023/02/15 05:58:25;;;;;;;29.05;15.25;;;;;;;;;;5062823;28;20033;-72
2023/02/15 06:00:51;;;;;;;29.15;14.90;;;;;;;;;;5056029;28;20025;-73
2023/02/15 06:03:17;;;;;;;29.63;15.40;;;;;;;;;;5058252;28;20060;-73
2023/02/15 06:05:43;;;;;;;28.55;13.40;;;;;;;;;;5056981;28;20036;-73
2023/02/15 06:08:10;;;;;;;31.38;14.93;;;;;;;;;;5064869;28;20032;-73
2023/02/15 06:10:36;;;;;;;34.22;15.13;;;;;;;;;;5061092;28;20036;-73
2023/02/15 06:13:02;;;;;;;27.80;13.65;;;;;;;;;;5066933;28;20028;-73
2023/02/15 06:15:28;;;;;;;27.75;14.25;;;;;;;;;;5063511;28;20028;-73
2023/02/15 06:17:54;;;;;;;30.27;14.57;;;;;;;;;;5056486;28;20036;-73
2023/02/15 06:20:20;;;;;;;26.20;13.20;;;;;;;;;;5058999;28;20601;-73
2023/02/15 06:22:46;;;;;;;26.80;13.77;;;;;;;;;;5059046;28;20032;-73
2023/02/15 06:25:12;;;;;;;20.17;10.30;;;;;;;;;;5062417;28;20028;-73
2023/02/15 06:27:41;;;;;;;23.27;10.45;;;;;;;;;;5059029;28;20036;-73
2023/02/15 06:30:08;;;;;;;21.90;10.38;;;;;;;;;;5063556;28;20032;-73
2023/02/15 06:32:34;;;;;;;21.75;12.43;;;;;;;;;;5063214;28;20070;-73
2023/02/15 06:35:00;;;;;;;23.58;12.45;;;;;;;;;;5058170;28;20064;-73
2023/02/15 06:37:26;;;;;;;22.95;11.32;;;;;;;;;;5053214;28;20059;-73
2023/02/15 06:39:52;;;;;;;22.55;12.60;;;;;;;;;;5058481;28;20641;-73
2023/02/15 06:42:18;;;;;;;29.17;13.57;;;;;;;;;;5062932;28;20104;-73
2023/02/15 06:44:45;;;;;;;27.77;12.55;;;;;;;;;;5055314;28;20064;-73
2023/02/15 06:47:11;;;;;;;24.65;11.32;;;;;;;;;;5052434;28;20124;-73
2023/02/15 06:49:38;;;;;;;25.58;12.02;;;;;;;;;;5054741;28;20082;-73
2023/02/15 06:52:04;;;;;;;21.42;11.77;;;;;;;;;;5055354;28;20039;-72
2023/02/15 06:54:30;;;;;;;22.45;10.60;;;;;;;;;;5059301;28;20032;-72
2023/02/15 06:56:56;;;;;;;23.25;11.45;;;;;;;;;;5055758;28;20044;-73
2023/02/15 06:59:22;;;;;;;30.75;13.07;;;;;;;;;;5058461;28;20493;-72
2023/02/15 07:01:51;;;;;;;28.60;13.77;;;;;;;;;;5058896;28;20041;-72
2023/02/15 07:04:17;;;;;;;47.00;21.65;;;;;;;;;;5059469;28;20085;-73
2023/02/15 07:06:43;;;;;;;41.10;16.80;;;;;;;;;;5059664;28;20037;-73
2023/02/15 07:09:10;;;;;;;55.83;26.83;;;;;;;;;;5061322;28;20099;-74
2023/02/15 07:14:20;;;;;;;47.28;23.52;;;;;;;;;;5059217;28;20101;-72
2023/02/15 07:16:46;;;;;;;43.92;22.13;;;;;;;;;;5060190;28;20033;-72
2023/02/15 07:19:12;;;;;;;45.97;23.00;;;;;;;;;;5062083;28;20197;-72
2023/02/15 07:21:38;;;;;;;45.08;23.17;;;;;;;;;;5057575;28;20800;-73
2023/02/15 07:24:05;;;;;;;42.22;21.80;;;;;;;;;;5060914;28;20036;-73
2023/02/15 07:26:34;;;;;;;44.35;22.20;;;;;;;;;;5055842;28;20036;-73
2023/02/15 07:29:00;;;;;;;50.15;24.20;;;;;;;;;;5059738;28;20029;-73
2023/02/15 07:31:26;;;;;;;44.85;24.75;;;;;;;;;;5063731;28;20036;-71
2023/02/15 07:33:52;;;;;;;64.07;35.30;;;;;;;;;;5055752;28;20040;-72
2023/02/15 07:36:18;;;;;;;55.55;32.33;;;;;;;;;;5059948;28;20060;-71
2023/02/15 07:38:44;;;;;;;42.13;22.70;;;;;;;;;;5057689;28;20040;-71
2023/02/15 07:41:12;;;;;;;34.00;16.50;;;;;;;;;;5060568;28;20028;-72
2023/02/15 07:43:40;;;;;;;33.35;14.60;;;;;;;;;;5058656;28;20042;-72
2023/02/15 07:46:07;;;;;;;28.98;13.00;;;;;;;;;;5060745;28;20115;-72
2023/02/15 07:48:34;;;;;;;28.92;13.82;;;;;;;;;;5058257;28;20531;-73
2023/02/15 07:51:00;;;;;;;31.65;14.50;;;;;;;;;;5058033;28;20029;-72
2023/02/15 07:53:26;;;;;;;33.17;13.75;;;;;;;;;;5061202;28;20041;-72
2023/02/15 07:55:52;;;;;;;30.13;14.00;;;;;;;;;;5066216;28;20035;-72
2023/02/15 07:58:19;;;;;;;33.03;18.52;;;;;;;;;;5057837;28;20033;-72
2023/02/15 08:00:57;;;;;;;36.92;20.75;;;;;;;;;;5060692;28;20047;-72
2023/02/15 08:03:26;;;;;;;31.75;16.63;;;;;;;;;;5056277;28;20546;-72
2023/02/15 08:05:56;;;;;;;34.13;19.70;;;;;;;;;;5064221;28;20054;-72
2023/02/15 08:08:31;;;;;;;33.15;16.17;;;;;;;;;;5060904;28;20044;-72
2023/02/15 08:13:55;;;;;;;26.05;13.15;;;;;;;;;;5059438;28;20043;-72
2023/02/15 08:16:37;;;;;;;23.45;12.52;;;;;;;;;;5061993;28;20032;-72
2023/02/15 08:19:35;;;;;;;29.25;12.65;;;;;;;;;;5059989;28;20047;-73
2023/02/15 08:22:05;;;;;;;31.10;14.77;;;;;;;;;;5022964;28;20071;-72
2023/02/15 08:24:32;;;;;;;30.10;13.98;;;;;;;;;;5067768;28;20047;-72
2023/02/15 08:26:59;;;;;;;35.67;15.52;;;;;;;;;;5062661;28;20462;-73
2023/02/15 08:29:26;;;;;;;24.48;13.10;;;;;;;;;;5059890;28;20493;-73
2023/02/15 08:32:01;;;;;;;35.55;13.88;;;;;;;;;;5067919;28;20377;-73
2023/02/15 08:34:28;;;;;;;38.47;14.48;;;;;;;;;;5057834;28;20032;-73
2023/02/15 08:36:54;;;;;;;42.20;17.58;;;;;;;;;;5064135;28;20119;-72
2023/02/15 08:39:21;;;;;;;43.90;16.73;;;;;;;;;;5057368;28;20127;-73
2023/02/15 08:41:47;;;;;;;28.08;12.98;;;;;;;;;;5062723;28;20033;-72
2023/02/15 08:44:14;;;;;;;30.73;15.55;;;;;;;;;;5058385;28;20074;-73
2023/02/15 08:46:42;;;;;;;27.98;13.60;;;;;;;;;;5059897;28;20461;-72
2023/02/15 08:49:08;;;;;;;34.85;15.45;;;;;;;;;;5058636;28;20462;-73
2023/02/15 08:51:35;;;;;;;30.00;13.48;;;;;;;;;;5055227;28;20063;-72
2023/02/15 08:54:06;;;;;;;26.00;12.77;;;;;;;;;;5066206;28;20028;-73
2023/02/15 08:56:36;;;;;;;32.38;13.32;;;;;;;;;;5059427;28;20040;-73
2023/02/15 08:59:02;;;;;;;29.48;12.50;;;;;;;;;;5061460;28;20397;-73
2023/02/15 09:01:29;;;;;;;31.10;12.68;;;;;;;;;;5061243;28;20040;-73
2023/02/15 09:03:56;;;;;;;26.13;10.95;;;;;;;;;;5058651;28;20072;-73
2023/02/15 09:06:23;;;;;;;25.60;10.50;;;;;;;;;;5054737;28;20134;-73
2023/02/15 09:08:49;;;;;;;26.05;9.13;;;;;;;;;;5058816;28;20033;-73
2023/02/15 09:11:23;;;;;;;34.33;11.52;;;;;;;;;;5061520;28;20060;-73
2023/02/15 09:13:56;;;;;;;23.65;9.43;;;;;;;;;;5057228;28;20482;-72
2023/02/15 09:16:23;;;;;;;25.08;9.93;;;;;;;;;;5057225;28;20154;-73
2023/02/15 09:18:49;;;;;;;26.42;9.50;;;;;;;;;;5061558;28;20056;-73
2023/02/15 09:21:16;;;;;;;20.35;8.82;;;;;;;;;;5055950;28;20072;-73
2023/02/15 09:23:43;;;;;;;18.88;8.77;;;;;;;;;;5064305;28;20028;-73
2023/02/15 09:26:11;;;;;;;24.65;9.27;;;;;;;;;;5062916;28;20036;-73
2023/02/15 09:28:37;;;;;;;20.85;9.13;;;;;;;;;;5058568;28;20028;-73
2023/02/15 09:31:12;;;;;;;20.73;9.60;;;;;;;;;;5055970;28;20869;-73
2023/02/15 09:33:39;;;;;;;16.60;7.82;;;;;;;;;;5058409;28;20613;-73
2023/02/15 09:36:05;;;;;;;25.23;7.53;;;;;;;;;;5057152;28;20028;-73
2023/02/15 09:38:32;;;;;;;36.40;12.85;;;;;;;;;;5059910;28;20029;-73
2023/02/15 09:41:13;;;;;;;33.40;11.02;;;;;;;;;;5063626;28;20032;-73
2023/02/15 09:43:59;;;;;;;29.95;9.85;;;;;;;;;;5059691;28;20036;-73
2023/02/15 09:46:25;;;;;;;25.60;9.23;;;;;;;;;;5047291;28;20123;-73
2023/02/15 09:48:56;;;;;;;24.15;9.75;;;;;;;;;;5063404;28;20573;-73
2023/02/15 09:51:22;;;;;;;19.23;8.50;;;;;;;;;;5057902;28;20028;-73
2023/02/15 09:53:48;;;;;;;19.27;8.07;;;;;;;;;;5060026;28;20802;-73
2023/02/15 09:56:18;;;;;;;16.77;7.57;;;;;;;;;;5062442;28;20046;-73
2023/02/15 09:58:45;;;;;;;18.17;8.70;;;;;;;;;;5063345;28;20032;-73
2023/02/15 10:01:26;;;;;;;29.60;9.18;;;;;;;;;;5064250;28;20070;-74
2023/02/15 10:04:03;;;;;;;21.45;8.55;;;;;;;;;;5061846;28;20124;-73
2023/02/15 10:06:47;;;;;;;21.98;8.18;;;;;;;;;;5054785;28;20116;-73
2023/02/15 10:09:25;;;;;;;20.08;7.80;;;;;;;;;;5055588;28;20108;-73
2023/02/15 10:12:00;;;;;;;20.20;8.20;;;;;;;;;;5055617;28;20109;-73
2023/02/15 10:14:37;;;;;;;19.58;7.60;;;;;;;;;;5059333;28;20124;-73
2023/02/15 10:17:03;;;;;;;18.98;7.85;;;;;;;;;;5058774;28;20457;-73
2023/02/15 10:19:38;;;;;;;21.15;7.90;;;;;;;;;;5058983;28;20047;-73
2023/02/15 10:22:07;;;;;;;27.85;9.25;;;;;;;;;;5058320;28;20594;-73
2023/02/15 10:24:43;;;;;;;19.38;7.95;;;;;;;;;;5059687;28;20382;-73
2023/02/15 10:27:14;;;;;;;21.48;8.02;;;;;;;;;;5059725;28;20873;-73
2023/02/15 10:29:44;;;;;;;17.02;7.22;;;;;;;;;;5059007;28;20029;-73
2023/02/15 10:32:16;;;;;;;24.83;7.82;;;;;;;;;;5052213;28;20467;-73
2023/02/15 10:34:49;;;;;;;15.95;7.15;;;;;;;;;;5054532;28;20040;-73
2023/02/15 10:37:34;;;;;;;15.68;6.80;;;;;;;;;;5057742;28;20025;-73
2023/02/15 10:40:02;;;;;;;12.63;6.18;;;;;;;;;;5059169;28;20116;-74
2023/02/15 10:46:06;;;;;;;15.57;7.13;;;;;;;;;;5003590;28;20189;-73
2023/02/15 10:48:32;;;;;;;15.60;7.20;;;;;;;;;;4994919;28;20061;-73
2023/02/15 10:50:59;;;;;;;14.32;6.47;;;;;;;;;;5007298;28;20042;-73
2023/02/15 10:53:41;;;;;;;18.42;6.65;;;;;;;;;;5004774;28;20176;-73
2023/02/15 10:56:07;;;;;;;11.93;5.43;;;;;;;;;;5006528;28;20470;-73
2023/02/15 10:58:42;;;;;;;16.10;6.32;;;;;;;;;;5001263;28;20045;-73
2023/02/15 11:01:08;;;;;;;12.52;5.68;;;;;;;;;;5006993;28;20049;-73
2023/02/15 11:03:34;;;;;;;14.00;5.72;;;;;;;;;;5000292;28;20062;-73
2023/02/15 11:06:10;;;;;;;16.40;5.90;;;;;;;;;;5001101;28;20041;-73
2023/02/15 11:08:41;;;;;;;19.17;6.63;;;;;;;;;;4999729;28;20639;-73
2023/02/15 11:11:09;;;;;;;15.32;6.13;;;;;;;;;;5007362;28;20046;-73
2023/02/15 11:13:39;;;;;;;16.63;6.32;;;;;;;;;;5002779;28;20205;-73
2023/02/15 11:16:08;;;;;;;14.95;5.78;;;;;;;;;;5023741;28;20040;-74
2023/02/15 11:18:36;;;;;;;16.23;6.15;;;;;;;;;;5057790;28;20123;-73
2023/02/15 11:21:11;;;;;;;14.80;5.75;;;;;;;;;;5062745;28;20047;-73
2023/02/15 11:23:42;;;;;;;17.27;6.30;;;;;;;;;;5065217;28;20051;-73
2023/02/15 11:26:23;;;;;;;13.25;5.60;;;;;;;;;;5067451;28;20029;-73
2023/02/15 11:29:10;;;;;;;16.10;5.20;;;;;;;;;;5067100;28;20580;-73
2023/02/15 11:31:48;;;;;;;11.05;4.22;;;;;;;;;;5063077;28;20035;-74
2023/02/15 11:34:18;;;;;;;11.30;4.60;;;;;;;;;;5060111;28;20501;-74
2023/02/15 11:36:45;;;;;;;12.52;4.32;;;;;;;;;;5061982;28;20044;-73
2023/02/15 11:39:13;;;;;;;12.50;4.95;;;;;;;;;;5053938;28;20044;-73
2023/02/15 11:41:42;;;;;;;11.63;4.70;;;;;;;;;;5060574;28;20377;-74
2023/02/15 11:44:15;;;;;;;13.57;4.80;;;;;;;;;;5066098;28;20387;-74
2023/02/15 11:46:41;;;;;;;7.75;3.50;;;;;;;;;;5056051;28;20043;-73
2023/02/15 11:49:27;;;;;;;8.15;3.55;;;;;;;;;;5058764;28;20099;-73
2023/02/15 11:51:54;;;;;;;7.78;3.65;;;;;;;;;;5063297;28;21701;-73
2023/02/15 11:54:22;;;;;;;8.73;4.40;;;;;;;;;;5057772;28;20056;-73
2023/02/15 11:56:48;;;;;;;12.43;4.45;;;;;;;;;;5064051;28;20040;-74
2023/02/15 11:59:19;;;;;;;11.63;4.85;;;;;;;;;;5066389;28;20037;-73
2023/02/15 12:01:45;;;;;;;14.77;4.22;;;;;;;;;;5066067;28;20040;-74
2023/02/15 12:04:15;;;;;;;10.18;4.03;;;;;;;;;;5062750;28;20075;-74
2023/02/15 12:06:53;;;;;;;7.75;3.75;;;;;;;;;;5059028;28;20086;-73
2023/02/15 12:09:41;;;;;;;12.45;3.92;;;;;;;;;;5060181;28;20029;-74
2023/02/15 12:12:23;;;;;;;8.48;3.10;;;;;;;;;;5066513;28;20036;-73
2023/02/15 12:14:50;;;;;;;10.40;3.20;;;;;;;;;;5063376;28;20035;-73
2023/02/15 12:17:16;;;;;;;10.80;4.18;;;;;;;;;;5058956;28;20044;-73
2023/02/15 12:19:42;;;;;;;11.20;4.28;;;;;;;;;;5062805;28;20073;-74
2023/02/15 12:22:38;;;;;;;11.50;4.18;;;;;;;;;;5059027;28;20167;-73
2023/02/15 12:25:23;;;;;;;9.85;3.38;;;;;;;;;;5042305;28;20801;-75
2023/02/15 12:27:50;;;;;;;9.98;3.70;;;;;;;;;;5056119;28;20504;-74
2023/02/15 12:30:21;;;;;;;9.20;3.45;;;;;;;;;;5063198;28;20096;-74
2023/02/15 12:32:49;;;;;;;9.40;3.55;;;;;;;;;;5061548;28;20057;-74
2023/02/15 12:35:28;;;;;;;12.90;3.83;;;;;;;;;;5062052;28;20745;-74
2023/02/15 12:37:55;;;;;;;14.48;3.88;;;;;;;;;;5067230;28;20041;-74
2023/02/15 12:40:28;;;;;;;9.07;3.90;;;;;;;;;;5062284;28;20037;-74
2023/02/15 12:42:54;;;;;;;13.13;4.40;;;;;;;;;;5058867;28;20769;-74
2023/02/15 12:45:28;;;;;;;9.52;3.78;;;;;;;;;;5059466;28;20039;-74
2023/02/15 12:48:12;;;;;;;11.05;3.63;;;;;;;;;;5060936;28;20040;-74
2023/02/15 12:50:40;;;;;;;11.18;3.88;;;;;;;;;;5060310;28;20148;-74
2023/02/15 12:53:08;;;;;;;11.25;4.20;;;;;;;;;;5056553;28;20033;-74
2023/02/15 12:55:34;;;;;;;10.43;3.60;;;;;;;;;;5065845;28;20032;-73
2023/02/15 12:58:20;;;;;;;9.73;3.63;;;;;;;;;;5058352;28;20680;-73
2023/02/15 13:00:46;;;;;;;11.80;5.15;;;;;;;;;;5063217;28;20029;-73
2023/02/15 13:03:23;;;;;;;13.18;3.88;;;;;;;;;;5054031;28;20490;-73
2023/02/15 13:05:53;;;;;;;10.35;3.70;;;;;;;;;;5064403;28;20029;-74
2023/02/15 13:08:21;;;;;;;12.00;3.35;;;;;;;;;;5059827;28;20082;-74
2023/02/15 13:11:14;;;;;;;11.80;3.20;;;;;;;;;;5063213;28;20066;-73
2023/02/15 13:13:57;;;;;;;11.50;3.55;;;;;;;;;;5057171;28;20036;-73
2023/02/15 13:16:29;;;;;;;10.00;3.53;;;;;;;;;;5062795;28;20064;-73
2023/02/15 13:18:55;;;;;;;9.80;3.20;;;;;;;;;;5063148;28;20036;-73
2023/02/15 13:21:24;;;;;;;7.13;3.15;;;;;;;;;;5063536;28;20020;-73
2023/02/15 13:24:10;;;;;;;10.43;3.45;;;;;;;;;;5059177;28;20033;-73
2023/02/15 13:26:36;;;;;;;8.43;3.05;;;;;;;;;;5019251;28;20045;-74
2023/02/15 13:29:23;;;;;;;7.28;3.65;;;;;;;;;;5062147;28;20126;-73
2023/02/15 13:31:49;;;;;;;13.32;3.75;;;;;;;;;;5059028;28;20028;-73
2023/02/15 13:34:28;;;;;;;7.90;3.20;;;;;;;;;;5058209;28;20036;-74
2023/02/15 13:37:08;;;;;;;10.88;3.67;;;;;;;;;;5066197;28;20033;-74
2023/02/15 13:39:34;;;;;;;8.98;3.00;;;;;;;;;;5060194;28;20056;-74
2023/02/15 13:42:00;;;;;;;8.60;3.08;;;;;;;;;;5052936;28;20386;-73
2023/02/15 13:44:34;;;;;;;9.23;3.38;;;;;;;;;;5058714;28;20036;-73
2023/02/15 13:47:00;;;;;;;9.98;3.38;;;;;;;;;;5052090;28;20107;-74
2023/02/15 13:49:45;;;;;;;11.25;3.03;;;;;;;;;;5063228;28;20789;-73
2023/02/15 13:52:20;;;;;;;9.50;4.07;;;;;;;;;;5061078;28;20512;-74
2023/02/15 13:54:53;;;;;;;9.15;2.80;;;;;;;;;;5060278;28;20052;-74
2023/02/15 13:57:28;;;;;;;7.82;2.65;;;;;;;;;;5056122;28;20038;-73
2023/02/15 14:00:01;;;;;;;6.93;2.38;;;;;;;;;;5058555;28;20071;-73
2023/02/15 14:02:27;;;;;;;8.70;2.75;;;;;;;;;;5063483;28;20049;-73
2023/02/15 14:05:05;;;;;;;11.48;2.80;;;;;;;;;;5063163;28;20035;-74
2023/02/15 14:07:42;;;;;;;15.68;2.72;;;;;;;;;;5058923;28;20041;-73
2023/02/15 14:10:20;;;;;;;8.25;2.65;;;;;;;;;;5055785;28;20033;-74
2023/02/15 14:13:05;;;;;;;11.20;4.57;;;;;;;;;;5059391;28;20453;-73
2023/02/15 14:15:47;;;;;;;13.13;4.80;;;;;;;;;;5068548;28;20112;-74
2023/02/15 14:18:13;;;;;;;;;;;;;;;;;;5058287;28;20111;-73
2023/02/15 14:21:02;;;;;;;17.38;7.90;;;;;;;;;;5068562;28;20423;-73
2023/02/15 14:23:29;;;;;;;12.27;4.32;;;;;;;;;;5062083;28;20044;-73
2023/02/15 14:26:15;;;;;;;9.13;3.47;;;;;;;;;;5073329;28;20025;-73
2023/02/15 14:28:59;;;;;;;10.77;4.90;;;;;;;;;;5064815;28;20040;-73
2023/02/15 14:31:29;;;;;;;11.32;4.47;;;;;;;;;;5051679;28;20486;-73
2023/02/15 14:33:58;;;;;;;11.90;3.55;;;;;;;;;;5064235;28;20482;-73
2023/02/15 14:36:25;;;;;;;7.60;3.50;;;;;;;;;;5068919;28;20054;-73
2023/02/15 14:42:27;;;;;;;8.00;3.10;;;;;;;;;;5025057;28;20071;-73
2023/02/15 14:44:58;;;;;;;9.30;3.08;;;;;;;;;;5069868;28;20082;-74
2023/02/15 14:47:30;;;;;;;6.43;2.58;;;;;;;;;;5068700;28;20416;-73
2023/02/15 14:49:56;;;;;;;7.75;2.92;;;;;;;;;;5066085;28;20056;-74
2023/02/15 14:52:22;;;;;;;5.72;2.33;;;;;;;;;;5069542;28;20644;-74
2023/02/15 14:54:48;;;;;;;9.07;2.38;;;;;;;;;;5070195;28;20111;-74
2023/02/15 14:57:14;;;;;;;7.05;2.83;;;;;;;;;;5069209;28;20033;-74
2023/02/15 14:59:40;;;;;;;8.20;2.63;;;;;;;;;;5065157;28;20036;-73
2023/02/15 15:02:09;;;;;;;7.38;3.35;;;;;;;;;;5067474;28;20040;-73
2023/02/15 15:04:35;;;;;;;10.88;3.92;;;;;;;;;;5071055;28;20387;-73
2023/02/15 15:07:01;;;;;;;11.13;4.45;;;;;;;;;;5069249;28;20051;-74
2023/02/15 15:09:28;;;;;;;8.43;4.25;;;;;;;;;;5067420;28;20035;-73
2023/02/15 15:11:55;;;;;;;8.73;3.65;;;;;;;;;;5070683;28;20037;-74